Time;durP1;ratioP1;P1;durP2;ratioP2;P2;SDS_P1;SDS_P2;PMS_P1;PMS_P2;Temp;Humidity;BMP_temperature;BMP_pressure;BME280_temperature;BME280_humidity;BME280_pressure;Samples;Min_cycle;Max_cycle;Signal;HPM_P1;HPM_P2
2023/05/11 00:02:16;;;;;;;0.82;0.40;;;19.20;55.80;;;;;;5108152;27;45415;-68
2023/05/11 00:04:43;;;;;;;2.13;0.40;;;19.20;55.80;;;;;;5108098;27;45421;-68
2023/05/11 00:07:10;;;;;;;0.32;0.32;;;19.20;55.80;;;;;;5107796;27;46312;-68
2023/05/11 00:09:37;;;;;;;0.35;0.35;;;19.20;55.90;;;;;;5107791;27;45344;-68
2023/05/11 00:12:04;;;;;;;0.88;0.88;;;19.20;55.90;;;;;;5107938;27;45509;-68
2023/05/11 00:14:31;;;;;;;0.22;0.22;;;19.20;55.90;;;;;;5107897;27;45280;-68
2023/05/11 00:16:59;;;;;;;0.50;0.45;;;19.20;55.90;;;;;;5107593;27;47339;-68
2023/05/11 00:19:26;;;;;;;0.68;0.50;;;19.20;55.90;;;;;;5107702;27;45246;-68
2023/05/11 00:21:53;;;;;;;1.20;0.47;;;19.20;55.90;;;;;;5107770;27;45398;-67
2023/05/11 00:24:20;;;;;;;1.55;0.40;;;19.20;56.00;;;;;;5107842;27;45455;-67
2023/05/11 00:26:47;;;;;;;0.20;0.20;;;19.10;56.60;;;;;;5107373;27;46263;-68
2023/05/11 00:29:14;;;;;;;0.68;0.40;;;19.10;56.60;;;;;;5107522;27;45241;-68
2023/05/11 00:31:41;;;;;;;0.28;0.28;;;19.10;56.00;;;;;;5107815;27;45267;-67
2023/05/11 00:34:09;;;;;;;0.30;0.30;;;19.10;56.00;;;;;;5107771;27;45404;-68
2023/05/11 00:36:38;;;;;;;0.30;0.28;;;19.10;56.00;;;;;;5107187;27;46394;-67
2023/05/11 00:39:05;;;;;;;0.30;0.30;;;19.10;56.00;;;;;;5107392;27;45357;-67
2023/05/11 00:41:32;;;;;;;0.65;0.50;;;19.10;56.00;;;;;;5107447;27;45260;-68
2023/05/11 00:43:58;;;;;;;0.32;0.32;;;19.10;56.10;;;;;;5107560;27;45492;-68
2023/05/11 00:46:26;;;;;;;1.88;0.32;;;19.10;56.00;;;;;;5106836;27;45365;-67
2023/05/11 00:48:53;;;;;;;0.40;0.40;;;19.10;56.00;;;;;;5107206;27;45425;-67
2023/05/11 00:51:21;;;;;;;0.35;0.35;;;19.10;56.10;;;;;;5107349;27;45195;-67
2023/05/11 00:53:48;;;;;;;0.32;0.32;;;19.10;56.00;;;;;;5107399;27;45400;-67
2023/05/11 00:56:15;;;;;;;0.30;0.30;;;19.10;56.00;;;;;;5106906;27;47424;-68
2023/05/11 00:58:42;;;;;;;0.28;0.28;;;19.00;56.00;;;;;;5107069;27;45338;-67
2023/05/11 01:01:09;;;;;;;0.40;0.32;;;19.00;56.00;;;;;;5107205;27;45290;-67
2023/05/11 01:03:36;;;;;;;0.40;0.40;;;19.00;56.00;;;;;;5107368;27;45311;-68
2023/05/11 01:06:07;;;;;;;0.30;0.30;;;19.00;56.00;;;;;;5106773;27;45303;-67
2023/05/11 01:08:39;;;;;;;1.55;0.40;;;19.00;56.10;;;;;;5106958;27;45196;-67
2023/05/11 01:11:08;;;;;;;0.40;0.40;;;19.00;56.00;;;;;;5107040;27;45287;-68
2023/05/11 01:13:37;;;;;;;0.30;0.30;;;19.00;56.00;;;;;;5107008;27;45331;-68
2023/05/11 01:16:06;;;;;;;0.38;0.30;;;19.00;56.10;;;;;;5103959;27;45523;-68
2023/05/11 01:18:35;;;;;;;0.55;0.40;;;19.00;56.10;;;;;;5106150;27;45407;-68
2023/05/11 01:21:02;;;;;;;0.40;0.40;;;19.00;56.20;;;;;;5106737;27;45306;-68
2023/05/11 01:24:04;;;;;;;0.30;0.30;;;19.00;56.20;;;;;;5107086;27;45421;-67
2023/05/11 01:26:35;;;;;;;0.40;0.40;;;19.00;56.20;;;;;;5106437;27;45254;-68
2023/05/11 01:29:10;;;;;;;0.40;0.40;;;18.90;56.10;;;;;;5106588;27;45333;-67
2023/05/11 01:31:40;;;;;;;1.17;0.30;;;18.90;56.20;;;;;;5104144;27;45308;-67
2023/05/11 01:34:09;;;;;;;0.45;0.30;;;18.90;56.80;;;;;;5106850;27;45399;-68
2023/05/11 01:36:39;;;;;;;0.20;0.20;;;18.90;56.20;;;;;;5106370;27;45412;-67
2023/05/11 01:39:07;;;;;;;0.35;0.35;;;18.90;56.20;;;;;;5106503;27;45294;-68
2023/05/11 01:41:34;;;;;;;0.68;0.40;;;18.90;56.30;;;;;;5106577;27;45322;-68
2023/05/11 01:44:03;;;;;;;0.30;0.30;;;18.90;56.30;;;;;;5106645;27;45481;-68
2023/05/11 01:46:32;;;;;;;0.57;0.40;;;18.90;56.30;;;;;;5105990;27;46588;-68
2023/05/11 01:49:00;;;;;;;0.20;0.20;;;18.80;56.30;;;;;;5106321;27;45253;-68
2023/05/11 01:51:28;;;;;;;0.40;0.20;;;18.80;56.30;;;;;;5106454;27;45386;-67
2023/05/11 01:53:55;;;;;;;0.47;0.40;;;18.80;56.30;;;;;;5106482;27;45245;-68
2023/05/11 01:56:22;;;;;;;0.50;0.32;;;18.80;56.30;;;;;;5106055;27;47438;-68
2023/05/11 01:58:49;;;;;;;0.40;0.40;;;18.80;56.40;;;;;;5106136;27;45263;-68
2023/05/11 02:01:16;;;;;;;0.32;0.32;;;18.80;56.40;;;;;;5103711;27;44770;-68
2023/05/11 02:03:43;;;;;;;0.20;0.20;;;18.80;56.40;;;;;;5106521;27;45535;-68
2023/05/11 02:06:11;;;;;;;0.60;0.40;;;18.80;56.40;;;;;;5106185;27;45345;-68
2023/05/11 02:08:38;;;;;;;0.35;0.30;;;18.80;56.40;;;;;;5106134;27;45275;-68
2023/05/11 02:11:05;;;;;;;0.20;0.20;;;18.80;56.40;;;;;;5106237;27;45324;-68
2023/05/11 02:13:32;;;;;;;0.22;0.22;;;18.80;56.40;;;;;;5106146;27;45379;-68
2023/05/11 02:15:59;;;;;;;0.25;0.25;;;18.80;56.40;;;;;;5105856;27;45320;-68
2023/05/11 02:18:26;;;;;;;0.40;0.40;;;18.80;56.40;;;;;;5106000;27;45398;-68
2023/05/11 02:20:52;;;;;;;0.35;0.35;;;18.70;56.40;;;;;;5106099;27;45355;-68
2023/05/11 02:23:21;;;;;;;0.88;0.30;;;18.80;56.40;;;;;;5106208;27;45313;-68
2023/05/11 02:25:47;;;;;;;0.75;0.40;;;18.70;56.40;;;;;;5105724;27;45372;-68
2023/05/11 02:28:14;;;;;;;0.65;0.30;;;18.70;56.40;;;;;;5105821;27;45311;-68
2023/05/11 02:30:43;;;;;;;0.40;0.40;;;18.70;56.40;;;;;;5108133;27;45305;-68
2023/05/11 02:33:10;;;;;;;0.57;0.30;;;18.70;56.40;;;;;;5109692;27;45161;-68
2023/05/11 02:35:38;;;;;;;0.35;0.30;;;18.70;56.40;;;;;;5109154;27;46398;-68
2023/05/11 02:38:05;;;;;;;0.40;0.30;;;18.70;56.40;;;;;;5109327;27;45293;-68
2023/05/11 02:40:34;;;;;;;0.50;0.30;;;18.70;56.50;;;;;;5109440;27;45271;-68
2023/05/11 02:43:05;;;;;;;0.77;0.40;;;18.70;57.00;;;;;;5109508;27;45300;-68
2023/05/11 02:45:32;;;;;;;0.20;0.20;;;18.60;56.50;;;;;;5108913;27;46388;-68
2023/05/11 02:48:00;;;;;;;0.50;0.30;;;18.60;56.50;;;;;;5109046;27;45393;-68
2023/05/11 02:50:29;;;;;;;0.30;0.30;;;18.60;56.50;;;;;;5109206;27;45260;-68
2023/05/11 02:52:57;;;;;;;0.30;0.30;;;18.60;56.50;;;;;;5109229;27;45560;-68
2023/05/11 02:55:24;;;;;;;0.30;0.30;;;18.60;56.50;;;;;;5108832;27;46602;-68
2023/05/11 02:57:52;;;;;;;0.20;0.20;;;18.60;56.50;;;;;;5108996;27;45247;-68
2023/05/11 03:00:19;;;;;;;0.40;0.40;;;18.60;56.60;;;;;;5109043;27;45382;-68
2023/05/11 03:02:46;;;;;;;0.82;0.30;;;18.60;56.60;;;;;;5109257;27;45345;-68
2023/05/11 03:05:13;;;;;;;0.73;0.25;;;18.60;56.60;;;;;;5108831;27;45649;-68
2023/05/11 03:07:44;;;;;;;0.57;0.40;;;18.60;56.60;;;;;;5108855;27;45328;-68
2023/05/11 03:10:11;;;;;;;0.38;0.38;;;18.50;56.60;;;;;;5108958;27;45378;-68
2023/05/11 03:12:37;;;;;;;0.30;0.30;;;18.50;56.70;;;;;;5108963;27;45329;-68
2023/05/11 03:15:07;;;;;;;0.32;0.30;;;18.50;56.60;;;;;;5108542;27;46425;-68
2023/05/11 03:17:34;;;;;;;1.02;0.50;;;18.50;56.60;;;;;;5108579;27;45434;-68
2023/05/11 03:20:02;;;;;;;0.30;0.30;;;18.50;56.70;;;;;;5108787;27;45661;-68
2023/05/11 03:22:29;;;;;;;0.28;0.28;;;18.50;56.60;;;;;;5108959;27;45303;-68
2023/05/11 03:24:56;;;;;;;0.20;0.20;;;18.50;56.70;;;;;;5108391;27;46350;-68
2023/05/11 03:27:23;;;;;;;0.60;0.40;;;18.50;56.70;;;;;;5108480;27;45335;-68
2023/05/11 03:29:49;;;;;;;0.50;0.40;;;18.50;56.70;;;;;;5108673;27;45402;-68
2023/05/11 03:32:17;;;;;;;0.75;0.40;;;18.50;56.70;;;;;;5108768;27;45310;-68
2023/05/11 03:34:44;;;;;;;1.27;0.43;;;18.40;56.60;;;;;;5108187;27;46341;-68
2023/05/11 03:37:12;;;;;;;0.30;0.30;;;18.40;56.60;;;;;;5108481;27;45373;-68
2023/05/11 03:39:39;;;;;;;0.98;0.32;;;18.40;56.70;;;;;;5108488;27;45281;-68
2023/05/11 03:42:06;;;;;;;0.28;0.28;;;18.40;56.70;;;;;;5108242;27;45349;-68
2023/05/11 03:44:33;;;;;;;0.30;0.30;;;18.40;56.80;;;;;;5108143;27;45306;-68
2023/05/11 03:47:00;;;;;;;0.60;0.50;;;18.40;56.70;;;;;;5107929;27;45301;-68
2023/05/11 03:49:28;;;;;;;0.32;0.32;;;18.40;56.70;;;;;;5108241;27;45343;-68
2023/05/11 03:51:55;;;;;;;0.38;0.38;;;18.40;56.70;;;;;;5108436;27;45403;-68
2023/05/11 03:54:22;;;;;;;0.40;0.40;;;18.40;56.70;;;;;;5107892;27;45401;-68
2023/05/11 03:56:48;;;;;;;0.47;0.45;;;18.40;56.70;;;;;;5107872;27;45263;-68
2023/05/11 03:59:16;;;;;;;0.30;0.30;;;18.40;56.70;;;;;;5108164;27;45341;-68
2023/05/11 04:01:42;;;;;;;0.47;0.47;;;18.40;56.70;;;;;;5108320;27;45229;-68
2023/05/11 04:04:09;;;;;;;0.40;0.40;;;18.30;56.70;;;;;;5107781;27;46396;-68
2023/05/11 04:06:37;;;;;;;0.45;0.30;;;18.30;56.70;;;;;;5107905;27;45448;-68
2023/05/11 04:09:05;;;;;;;0.32;0.32;;;18.30;56.80;;;;;;5108067;27;45330;-68
2023/05/11 04:11:35;;;;;;;1.00;0.30;;;18.30;56.70;;;;;;5108050;27;45308;-68
2023/05/11 04:14:02;;;;;;;0.50;0.40;;;18.30;56.80;;;;;;5107622;27;45221;-68
2023/05/11 04:16:29;;;;;;;0.40;0.30;;;18.30;56.80;;;;;;5107856;27;45319;-68
2023/05/11 04:18:55;;;;;;;0.32;0.32;;;18.30;56.80;;;;;;5107811;27;45302;-68
2023/05/11 04:21:22;;;;;;;0.43;0.40;;;18.30;56.80;;;;;;5108027;27;45216;-68
2023/05/11 04:23:50;;;;;;;0.40;0.38;;;18.30;56.80;;;;;;5107468;27;46438;-68
2023/05/11 04:26:17;;;;;;;0.75;0.50;;;18.30;56.80;;;;;;5107396;27;45292;-68
2023/05/11 04:28:44;;;;;;;0.40;0.30;;;18.30;56.80;;;;;;5107883;27;45330;-68
2023/05/11 04:31:11;;;;;;;0.40;0.40;;;18.30;56.80;;;;;;5107692;27;45431;-68
2023/05/11 04:33:38;;;;;;;0.32;0.30;;;18.30;56.90;;;;;;5107333;27;45288;-68
2023/05/11 04:36:06;;;;;;;1.63;0.50;;;18.30;56.80;;;;;;5107310;27;45332;-68
2023/05/11 04:38:32;;;;;;;0.60;0.40;;;18.30;56.80;;;;;;5107786;27;45295;-68
2023/05/11 04:41:04;;;;;;;0.40;0.40;;;18.30;56.90;;;;;;5107702;27;45421;-68
2023/05/11 04:43:31;;;;;;;0.30;0.30;;;18.30;56.90;;;;;;5107230;27;46346;-68
2023/05/11 04:45:59;;;;;;;0.38;0.38;;;18.30;56.80;;;;;;5107177;27;45294;-68
2023/05/11 04:48:26;;;;;;;2.33;0.50;;;18.30;56.90;;;;;;5107002;27;45327;-68
2023/05/11 04:50:53;;;;;;;0.55;0.40;;;18.20;56.90;;;;;;5107455;27;45328;-68
2023/05/11 04:53:19;;;;;;;0.40;0.40;;;18.20;56.80;;;;;;5105971;27;47231;-68
2023/05/11 04:55:46;;;;;;;0.30;0.30;;;18.20;56.90;;;;;;5107056;27;45360;-68
2023/05/11 04:58:14;;;;;;;0.32;0.32;;;18.20;56.90;;;;;;5107219;27;45382;-68
2023/05/11 05:00:41;;;;;;;0.57;0.40;;;18.20;56.90;;;;;;5107449;27;45288;-68
2023/05/11 05:03:08;;;;;;;0.50;0.50;;;18.20;56.90;;;;;;5106863;27;45350;-68
2023/05/11 05:05:35;;;;;;;0.40;0.40;;;18.20;56.90;;;;;;5106862;27;45369;-68
2023/05/11 05:08:02;;;;;;;0.40;0.40;;;18.20;56.90;;;;;;5107074;27;45181;-67
2023/05/11 05:10:28;;;;;;;1.13;0.68;;;18.20;56.90;;;;;;5107310;27;45389;-68
2023/05/11 05:12:55;;;;;;;0.40;0.40;;;18.20;57.00;;;;;;5106705;27;45242;-68
2023/05/11 05:15:23;;;;;;;0.52;0.38;;;18.20;56.90;;;;;;5106849;27;45444;-68
2023/05/11 05:17:50;;;;;;;1.55;0.35;;;18.20;56.90;;;;;;5106814;27;45395;-68
2023/05/11 05:20:17;;;;;;;0.82;0.50;;;18.20;56.90;;;;;;5107037;27;45333;-68
2023/05/11 05:22:44;;;;;;;0.30;0.30;;;18.20;56.90;;;;;;5106733;27;45247;-68
2023/05/11 05:25:11;;;;;;;0.50;0.40;;;18.20;56.90;;;;;;5106512;27;45348;-68
2023/05/11 05:27:38;;;;;;;0.40;0.40;;;18.20;56.90;;;;;;5106824;27;45334;-68
2023/05/11 05:30:06;;;;;;;0.43;0.43;;;18.20;56.90;;;;;;5106901;27;45385;-68
2023/05/11 05:32:34;;;;;;;0.20;0.20;;;18.20;56.80;;;;;;5106411;27;45260;-68
2023/05/11 05:35:01;;;;;;;0.52;0.52;;;18.20;56.80;;;;;;5106343;27;45344;-68
2023/05/11 05:37:28;;;;;;;0.47;0.30;;;18.20;56.90;;;;;;5106588;27;45299;-68
2023/05/11 05:39:55;;;;;;;0.55;0.55;;;18.20;56.80;;;;;;5106665;27;45588;-68
2023/05/11 05:42:21;;;;;;;0.30;0.30;;;18.20;56.80;;;;;;5106382;27;45363;-68
2023/05/11 05:44:48;;;;;;;1.75;0.45;;;18.20;56.80;;;;;;5106185;27;45340;-68
2023/05/11 05:47:15;;;;;;;0.40;0.40;;;18.20;56.80;;;;;;5106074;27;45339;-68
2023/05/11 05:49:43;;;;;;;0.40;0.40;;;18.20;56.80;;;;;;5106770;27;45469;-68
2023/05/11 05:52:10;;;;;;;0.45;0.28;;;18.20;56.80;;;;;;5106241;27;46411;-68
2023/05/11 05:54:37;;;;;;;0.68;0.50;;;18.20;56.80;;;;;;5106256;27;45377;-68
2023/05/11 05:57:05;;;;;;;0.40;0.38;;;18.20;56.80;;;;;;5106316;27;45314;-68
2023/05/11 05:59:32;;;;;;;0.47;0.40;;;18.20;56.80;;;;;;5106528;27;45521;-68
2023/05/11 06:01:58;;;;;;;0.40;0.40;;;18.20;56.70;;;;;;5106044;27;45264;-68
2023/05/11 06:04:25;;;;;;;0.50;0.50;;;18.20;56.70;;;;;;5107847;27;45473;-68
2023/05/11 06:06:54;;;;;;;0.32;0.32;;;18.20;56.80;;;;;;5109937;27;45440;-68
2023/05/11 06:09:21;;;;;;;0.50;0.50;;;18.20;56.80;;;;;;5110220;27;45353;-68
2023/05/11 06:11:48;;;;;;;0.32;0.30;;;18.20;56.70;;;;;;5109579;27;47326;-68
2023/05/11 06:14:15;;;;;;;0.50;0.50;;;18.20;56.70;;;;;;5109490;27;45397;-68
2023/05/11 06:16:41;;;;;;;1.58;0.43;;;18.20;56.70;;;;;;5109717;27;45327;-68
2023/05/11 06:19:08;;;;;;;0.30;0.30;;;18.20;56.70;;;;;;5110075;27;45313;-68
2023/05/11 06:21:35;;;;;;;0.63;0.30;;;18.20;56.80;;;;;;5109575;27;46388;-68
2023/05/11 06:24:04;;;;;;;0.40;0.40;;;18.20;56.70;;;;;;5109483;27;45266;-68
2023/05/11 06:26:30;;;;;;;0.28;0.28;;;18.20;56.70;;;;;;5109590;27;45366;-68
2023/05/11 06:28:57;;;;;;;0.30;0.30;;;18.20;56.70;;;;;;5109964;27;45421;-68
2023/05/11 06:31:24;;;;;;;0.60;0.50;;;18.20;56.70;;;;;;5109301;27;46415;-68
2023/05/11 06:33:51;;;;;;;0.77;0.40;;;18.20;56.70;;;;;;5109371;27;45319;-68
2023/05/11 06:36:18;;;;;;;0.55;0.47;;;18.20;56.80;;;;;;5109308;27;45432;-68
2023/05/11 06:38:44;;;;;;;0.50;0.45;;;18.20;56.80;;;;;;5109522;27;45402;-68
2023/05/11 06:41:12;;;;;;;1.50;0.30;;;18.20;56.80;;;;;;5109369;27;46488;-68
2023/05/11 06:43:39;;;;;;;0.32;0.32;;;18.20;56.70;;;;;;5109203;27;45311;-68
2023/05/11 06:46:06;;;;;;;0.30;0.30;;;18.20;56.70;;;;;;5109210;27;45395;-68
2023/05/11 06:48:33;;;;;;;0.30;0.30;;;18.20;56.70;;;;;;5109090;27;45225;-68
2023/05/11 06:51:00;;;;;;;0.75;0.75;;;18.20;56.70;;;;;;5108986;27;45354;-68
2023/05/11 06:53:26;;;;;;;0.30;0.30;;;18.20;56.70;;;;;;5109187;27;45328;-68
2023/05/11 06:55:54;;;;;;;0.95;0.40;;;18.20;56.70;;;;;;5109223;27;45419;-68
2023/05/11 06:58:22;;;;;;;0.63;0.40;;;18.20;56.70;;;;;;5109651;27;45436;-67
2023/05/11 07:00:49;;;;;;;0.50;0.50;;;18.30;56.70;;;;;;5108978;27;46556;-68
2023/05/11 07:03:16;;;;;;;0.65;0.47;;;18.30;56.70;;;;;;5108929;27;45438;-68
2023/05/11 07:05:43;;;;;;;0.60;0.60;;;18.30;56.70;;;;;;5108971;27;45618;-68
2023/05/11 07:08:10;;;;;;;1.55;0.43;;;18.30;56.60;;;;;;5109194;27;45373;-68
2023/05/11 07:10:37;;;;;;;0.65;0.50;;;18.20;56.70;;;;;;5108658;27;45442;-68
2023/05/11 07:13:04;;;;;;;0.70;0.50;;;18.30;56.60;;;;;;5108941;27;45129;-68
2023/05/11 07:15:32;;;;;;;1.38;0.38;;;18.20;56.60;;;;;;5108205;27;45388;-68
2023/05/11 07:18:00;;;;;;;0.50;0.50;;;18.30;56.60;;;;;;5109059;27;45351;-68
2023/05/11 07:20:26;;;;;;;1.08;0.60;;;18.30;56.70;;;;;;5108578;27;45323;-68
2023/05/11 07:22:56;;;;;;;0.40;0.40;;;18.30;56.60;;;;;;5108679;27;45249;-68
2023/05/11 07:25:23;;;;;;;0.60;0.60;;;18.30;56.60;;;;;;5108673;27;45312;-68
2023/05/11 07:27:50;;;;;;;0.57;0.57;;;18.30;56.60;;;;;;5108919;27;45361;-68
2023/05/11 07:30:17;;;;;;;0.47;0.40;;;18.30;56.60;;;;;;5108663;27;45305;-68
2023/05/11 07:32:45;;;;;;;0.40;0.40;;;18.30;56.60;;;;;;5108410;27;45173;-68
2023/05/11 07:35:13;;;;;;;0.30;0.30;;;18.30;56.50;;;;;;5108436;27;45393;-68
2023/05/11 07:37:40;;;;;;;1.27;0.70;;;18.30;56.60;;;;;;5108692;27;45413;-68
2023/05/11 07:40:08;;;;;;;0.50;0.50;;;18.30;56.50;;;;;;5108391;27;47419;-68
2023/05/11 07:42:35;;;;;;;1.33;0.50;;;18.40;56.50;;;;;;5108280;27;45319;-68
2023/05/11 07:45:02;;;;;;;0.80;0.50;;;18.40;56.40;;;;;;5108478;27;45285;-67
2023/05/11 07:47:28;;;;;;;1.17;0.47;;;18.40;56.40;;;;;;5108039;27;45563;-68
2023/05/11 07:49:57;;;;;;;0.60;0.60;;;18.40;56.40;;;;;;5105454;27;46107;-68
2023/05/11 07:52:23;;;;;;;0.35;0.30;;;18.40;56.40;;;;;;5108188;27;45330;-68
2023/05/11 07:54:50;;;;;;;0.93;0.50;;;18.40;56.40;;;;;;5108022;27;45383;-68
2023/05/11 07:57:17;;;;;;;0.70;0.63;;;18.40;56.30;;;;;;5108464;27;45577;-68
2023/05/11 07:59:44;;;;;;;0.60;0.57;;;18.40;56.30;;;;;;5108145;27;47625;-68
2023/05/11 08:02:11;;;;;;;0.30;0.30;;;18.40;56.40;;;;;;5107944;27;45312;-68
2023/05/11 08:04:38;;;;;;;0.45;0.45;;;18.40;56.30;;;;;;5107875;27;45310;-68
2023/05/11 08:07:11;;;;;;;1.77;0.50;;;18.40;56.40;;;;;;5108191;27;45556;-67
2023/05/11 08:09:38;;;;;;;1.20;0.60;;;18.40;56.40;;;;;;5107658;27;45298;-68
2023/05/11 08:12:05;;;;;;;0.55;0.50;;;18.40;56.40;;;;;;5107892;27;45150;-68
2023/05/11 08:14:32;;;;;;;0.40;0.40;;;18.40;56.30;;;;;;5107685;27;45392;-68
2023/05/11 08:16:59;;;;;;;1.38;0.47;;;18.40;56.40;;;;;;5107957;27;45403;-68
2023/05/11 08:19:26;;;;;;;0.45;0.45;;;18.50;56.40;;;;;;5107425;27;46663;-67
2023/05/11 08:21:53;;;;;;;0.82;0.52;;;18.50;56.40;;;;;;5107583;27;45287;-68
2023/05/11 08:24:21;;;;;;;0.40;0.40;;;18.50;56.30;;;;;;5107736;27;45300;-68
2023/05/11 08:26:48;;;;;;;0.50;0.50;;;18.50;56.40;;;;;;5106798;27;45421;-68
2023/05/11 08:29:15;;;;;;;0.63;0.50;;;18.50;56.50;;;;;;5106856;27;46204;-68
2023/05/11 08:31:42;;;;;;;1.15;0.60;;;18.50;56.50;;;;;;5107373;27;45273;-68
2023/05/11 08:34:09;;;;;;;0.63;0.35;;;18.50;56.40;;;;;;5107402;27;45318;-68
2023/05/11 08:36:36;;;;;;;0.52;0.50;;;18.60;56.50;;;;;;5107469;27;45309;-68
2023/05/11 08:39:03;;;;;;;4.07;0.60;;;18.60;56.50;;;;;;5107240;27;45671;-68
2023/05/11 08:41:32;;;;;;;0.50;0.50;;;18.60;56.50;;;;;;5107249;27;45357;-68
2023/05/11 08:43:59;;;;;;;1.50;0.57;;;18.60;56.40;;;;;;5107371;27;45334;-68
2023/05/11 08:46:26;;;;;;;0.93;0.80;;;18.60;56.40;;;;;;5107430;27;45478;-68
2023/05/11 08:48:53;;;;;;;2.03;0.70;;;18.60;56.30;;;;;;5107105;27;47096;-67
2023/05/11 08:51:20;;;;;;;1.50;0.80;;;18.60;56.40;;;;;;5107218;27;45388;-68
2023/05/11 08:53:47;;;;;;;2.25;0.60;;;18.70;56.40;;;;;;5107115;27;45387;-67
2023/05/11 08:56:13;;;;;;;0.60;0.60;;;18.70;56.30;;;;;;5107121;27;45419;-68
2023/05/11 08:58:42;;;;;;;1.75;0.38;;;18.70;56.20;;;;;;5106919;27;46410;-68
2023/05/11 09:01:10;;;;;;;0.50;0.50;;;18.70;56.20;;;;;;5106966;27;45325;-67
2023/05/11 09:03:38;;;;;;;1.05;0.70;;;18.70;56.20;;;;;;5107487;27;45303;-66
2023/05/11 09:06:06;;;;;;;0.60;0.60;;;18.80;56.20;;;;;;5107308;27;45647;-66
2023/05/11 09:08:34;;;;;;;0.60;0.60;;;18.70;56.10;;;;;;5106770;27;45485;-67
2023/05/11 09:11:01;;;;;;;2.03;0.50;;;18.80;56.20;;;;;;5106919;27;45272;-67
2023/05/11 09:13:29;;;;;;;0.55;0.55;;;18.80;56.10;;;;;;5107082;27;45298;-68
2023/05/11 09:15:57;;;;;;;0.70;0.70;;;18.80;56.10;;;;;;5106940;27;45263;-67
2023/05/11 09:18:23;;;;;;;1.25;0.70;;;18.80;56.00;;;;;;5106694;27;45300;-67
2023/05/11 09:20:51;;;;;;;0.55;0.55;;;18.80;56.10;;;;;;5106917;27;45429;-67
2023/05/11 09:23:18;;;;;;;0.95;0.85;;;18.80;56.10;;;;;;5106822;27;45229;-67
2023/05/11 09:25:44;;;;;;;1.52;0.55;;;18.80;56.10;;;;;;5106807;27;45505;-67
2023/05/11 09:28:12;;;;;;;2.97;0.82;;;18.80;56.10;;;;;;5106614;27;47336;-67
2023/05/11 09:30:38;;;;;;;0.40;0.40;;;18.80;56.20;;;;;;5106661;27;45366;-66
2023/05/11 09:33:07;;;;;;;1.05;0.60;;;18.90;56.10;;;;;;5106741;27;45524;-66
2023/05/11 09:35:34;;;;;;;0.85;0.50;;;18.90;56.10;;;;;;5106563;27;45307;-67
2023/05/11 09:38:03;;;;;;;0.38;0.38;;;18.90;56.10;;;;;;5106498;27;45325;-67
2023/05/11 09:40:30;;;;;;;1.80;0.60;;;18.90;56.70;;;;;;5106246;27;45369;-67
2023/05/11 09:42:57;;;;;;;1.48;0.50;;;18.90;56.00;;;;;;5106820;27;45338;-67
2023/05/11 09:45:39;;;;;;;0.70;0.65;;;18.90;56.00;;;;;;5106526;27;45481;-67
2023/05/11 09:48:13;;;;;;;0.55;0.50;;;19.00;56.00;;;;;;5104462;27;46375;-66
2023/05/11 09:50:41;;;;;;;0.43;0.43;;;19.00;56.00;;;;;;5105692;27;45459;-69
2023/05/11 09:53:08;;;;;;;2.88;0.70;;;19.00;56.00;;;;;;5105818;27;45454;-69
2023/05/11 09:55:35;;;;;;;2.85;0.88;;;19.00;56.00;;;;;;5106193;27;45233;-69
2023/05/11 09:58:03;;;;;;;0.88;0.57;;;19.10;56.10;;;;;;5105179;27;45382;-69
2023/05/11 10:00:30;;;;;;;1.13;0.70;;;19.10;56.00;;;;;;5106052;27;45322;-68
2023/05/11 10:03:01;;;;;;;2.55;0.65;;;19.10;56.00;;;;;;5106315;27;45382;-67
2023/05/11 10:05:31;;;;;;;0.93;0.60;;;19.10;56.00;;;;;;5106151;27;45369;-67
2023/05/11 10:07:58;;;;;;;0.95;0.70;;;19.10;56.00;;;;;;5105486;27;45245;-67
2023/05/11 10:10:26;;;;;;;0.40;0.40;;;19.10;56.10;;;;;;5105201;27;45295;-68
2023/05/11 10:12:53;;;;;;;0.90;0.70;;;19.10;56.10;;;;;;5104547;27;45468;-67
2023/05/11 10:15:23;;;;;;;0.93;0.85;;;19.10;56.10;;;;;;5106432;27;45436;-66
2023/05/11 10:17:51;;;;;;;0.90;0.65;;;19.10;56.00;;;;;;5105845;27;45251;-68
2023/05/11 10:20:18;;;;;;;0.60;0.60;;;19.00;55.90;;;;;;5105270;27;45550;-67
2023/05/11 10:22:46;;;;;;;0.98;0.93;;;19.00;55.90;;;;;;5105845;27;45328;-68
2023/05/11 10:25:13;;;;;;;0.88;0.85;;;19.00;55.90;;;;;;5105838;27;45318;-69
2023/05/11 10:27:39;;;;;;;3.65;2.55;;;19.00;55.70;;;;;;5105330;27;45536;-69
2023/05/11 10:30:08;;;;;;;3.05;2.10;;;19.00;55.40;;;;;;5105778;27;45169;-70
2023/05/11 10:32:36;;;;;;;3.47;1.60;;;18.90;55.20;;;;;;5105911;27;45362;-67
2023/05/11 10:35:03;;;;;;;2.35;1.52;;;18.90;55.30;;;;;;5105868;27;45481;-67
2023/05/11 10:37:30;;;;;;;1.90;1.23;;;18.90;55.50;;;;;;5105685;27;46526;-68
2023/05/11 10:39:58;;;;;;;1.00;1.00;;;18.90;55.30;;;;;;5105683;27;45292;-67
2023/05/11 10:42:36;;;;;;;2.00;1.20;;;18.90;55.30;;;;;;5105776;27;45330;-68
2023/05/11 10:45:20;;;;;;;1.30;1.00;;;18.90;55.40;;;;;;5105777;27;45303;-67
2023/05/11 10:48:16;;;;;;;2.83;1.10;;;18.90;55.30;;;;;;5104373;27;45370;-66
2023/05/11 10:51:07;;;;;;;1.65;0.85;;;18.90;55.60;;;;;;5106208;27;45265;-68
2023/05/11 10:53:41;;;;;;;4.10;0.80;;;18.90;55.30;;;;;;5109384;27;45359;-68
2023/05/11 10:56:19;;;;;;;2.40;0.90;;;18.90;55.40;;;;;;5109127;27;45297;-69
2023/05/11 10:59:03;;;;;;;2.45;0.90;;;18.90;55.50;;;;;;5108265;27;46747;-68
2023/05/11 11:01:39;;;;;;;2.88;1.10;;;18.90;55.80;;;;;;5108037;27;45439;-68
2023/05/11 11:04:07;;;;;;;1.50;0.82;;;18.90;55.90;;;;;;5109086;27;45367;-69
2023/05/11 11:06:34;;;;;;;1.08;1.00;;;18.90;56.00;;;;;;5108549;27;45495;-68
2023/05/11 11:09:03;;;;;;;1.55;1.00;;;19.00;55.90;;;;;;5108726;27;45217;-70
2023/05/11 11:11:32;;;;;;;0.88;0.60;;;19.00;55.80;;;;;;5108672;27;45350;-68
2023/05/11 11:14:01;;;;;;;1.45;0.90;;;19.00;55.80;;;;;;5108950;27;45336;-70
2023/05/11 11:16:28;;;;;;;0.80;0.80;;;19.00;55.90;;;;;;5108584;27;45393;-69
2023/05/11 11:19:30;;;;;;;2.63;0.90;;;19.00;55.70;;;;;;5108110;27;45299;-69
2023/05/11 11:21:57;;;;;;;1.92;0.90;;;19.00;55.70;;;;;;5108234;27;45316;-70
2023/05/11 11:24:42;;;;;;;1.60;0.80;;;19.00;55.80;;;;;;5108492;27;45287;-68
2023/05/11 11:27:11;;;;;;;1.10;0.90;;;19.00;55.90;;;;;;5108180;27;45378;-69
2023/05/11 11:29:38;;;;;;;2.63;1.38;;;19.10;55.90;;;;;;5108206;27;45466;-68
2023/05/11 11:32:27;;;;;;;2.15;0.80;;;19.10;55.80;;;;;;5108367;27;45313;-68
2023/05/11 11:34:54;;;;;;;1.98;0.95;;;19.10;55.20;;;;;;5107934;27;45302;-69
2023/05/11 11:37:22;;;;;;;0.80;0.80;;;19.10;55.10;;;;;;5108439;27;45310;-68
2023/05/11 11:39:59;;;;;;;1.98;1.00;;;19.10;55.20;;;;;;5107848;27;45264;-68
2023/05/11 11:42:40;;;;;;;2.15;0.80;;;19.10;55.20;;;;;;5108400;27;45322;-69
2023/05/11 11:45:30;;;;;;;0.93;0.82;;;19.20;55.20;;;;;;5107321;27;45389;-68
2023/05/11 11:48:06;;;;;;;0.98;0.90;;;19.20;55.30;;;;;;5107916;27;45263;-68
2023/05/11 11:50:33;;;;;;;1.67;1.23;;;19.20;55.70;;;;;;5107561;27;45398;-68
2023/05/11 11:53:00;;;;;;;2.45;0.80;;;19.20;55.10;;;;;;5106064;27;45349;-69
2023/05/11 11:55:44;;;;;;;2.25;1.40;;;19.30;55.90;;;;;;5106677;27;45320;-69
2023/05/11 11:58:13;;;;;;;2.20;1.20;;;19.30;55.00;;;;;;5107665;27;45370;-69
2023/05/11 12:00:40;;;;;;;1.98;1.40;;;19.30;55.00;;;;;;5106483;27;45493;-69
2023/05/11 12:03:06;;;;;;;4.22;1.75;;;19.30;54.80;;;;;;5107712;27;45319;-68
2023/05/11 12:05:34;;;;;;;8.40;2.38;;;19.40;54.80;;;;;;5107170;27;45804;-67
2023/05/11 12:08:03;;;;;;;15.02;2.60;;;19.40;54.50;;;;;;5107750;27;45575;-69
2023/05/11 12:10:30;;;;;;;28.20;4.05;;;19.40;54.40;;;;;;5107439;27;46442;-68
2023/05/11 12:12:57;;;;;;;17.90;3.08;;;19.40;54.50;;;;;;5106644;27;45304;-69
2023/05/11 12:15:25;;;;;;;25.00;5.95;;;19.50;54.10;;;;;;5107665;27;45320;-69
2023/05/11 12:17:52;;;;;;;36.03;5.57;;;19.50;54.80;;;;;;5108158;27;45413;-68
2023/05/11 12:20:20;;;;;;;31.80;5.63;;;19.50;54.80;;;;;;5107150;27;46674;-69
2023/05/11 12:22:47;;;;;;;27.45;4.93;;;19.60;54.80;;;;;;5107901;27;45258;-68
2023/05/11 12:25:16;;;;;;;21.67;4.60;;;19.60;54.80;;;;;;5107048;27;45609;-69
2023/05/11 12:27:49;;;;;;;22.40;3.28;;;19.60;54.80;;;;;;5107005;27;45634;-69
2023/05/11 12:30:20;;;;;;;10.43;2.85;;;19.60;54.50;;;;;;5089602;27;45542;-69
2023/05/11 12:32:49;;;;;;;4.43;1.38;;;19.50;54.10;;;;;;5106641;27;45168;-69
2023/05/11 12:35:16;;;;;;;3.85;1.40;;;19.40;53.50;;;;;;5086796;27;45394;-70
2023/05/11 12:37:43;;;;;;;3.28;1.40;;;19.40;54.10;;;;;;5088745;27;45324;-69
2023/05/11 12:40:11;;;;;;;3.13;0.90;;;19.30;54.80;;;;;;5106214;27;45370;-69
2023/05/11 12:42:38;;;;;;;2.65;1.00;;;19.20;55.40;;;;;;5105702;27;45390;-68
2023/05/11 12:45:06;;;;;;;1.20;0.95;;;19.20;55.60;;;;;;5106983;27;45224;-70
2023/05/11 12:47:32;;;;;;;3.83;0.98;;;19.10;56.10;;;;;;5107181;27;45396;-69
2023/05/11 12:50:01;;;;;;;1.40;0.90;;;19.10;56.40;;;;;;5107043;27;45261;-70
2023/05/11 12:52:27;;;;;;;2.60;0.90;;;19.10;56.60;;;;;;5107017;27;45208;-70